sensor_id;sensor_type;location;lat;lon;timestamp;temperature;humidity
18091;DHT22;9172;49.948;9.208;2022-10-14T00:01:24;13.10;99.90
18091;DHT22;9172;49.948;9.208;2022-10-14T00:03:53;13.10;99.90
18091;DHT22;9172;49.948;9.208;2022-10-14T00:06:24;13.10;99.90
18091;DHT22;9172;49.948;9.208;2022-10-14T00:08:54;13.10;99.90
18091;DHT22;9172;49.948;9.208;2022-10-14T00:11:26;13.00;99.90
18091;DHT22;9172;49.948;9.208;2022-10-14T00:13:55;13.00;99.90
18091;DHT22;9172;49.948;9.208;2022-10-14T00:16:27;13.00;99.90
18091;DHT22;9172;49.948;9.208;2022-10-14T00:18:56;13.10;99.90
18091;DHT22;9172;49.948;9.208;2022-10-14T00:21:25;13.00;99.90
18091;DHT22;9172;49.948;9.208;2022-10-14T00:23:54;13.00;99.90
18091;DHT22;9172;49.948;9.208;2022-10-14T00:26:25;13.00;99.90
18091;DHT22;9172;49.948;9.208;2022-10-14T00:28:56;13.00;99.90
18091;DHT22;9172;49.948;9.208;2022-10-14T00:31:25;13.00;99.90
18091;DHT22;9172;49.948;9.208;2022-10-14T00:33:54;13.00;99.90
18091;DHT22;9172;49.948;9.208;2022-10-14T00:36:24;13.00;99.90
18091;DHT22;9172;49.948;9.208;2022-10-14T00:38:54;13.00;99.90
18091;DHT22;9172;49.948;9.208;2022-10-14T00:41:25;13.00;99.90
18091;DHT22;9172;49.948;9.208;2022-10-14T00:43:57;12.90;99.90
18091;DHT22;9172;49.948;9.208;2022-10-14T00:46:28;12.90;99.90
18091;DHT22;9172;49.948;9.208;2022-10-14T00:48:58;13.00;99.90
18091;DHT22;9172;49.948;9.208;2022-10-14T00:51:29;13.00;99.90
18091;DHT22;9172;49.948;9.208;2022-10-14T00:53:59;13.00;99.90
18091;DHT22;9172;49.948;9.208;2022-10-14T00:56:29;13.00;99.90
18091;DHT22;9172;49.948;9.208;2022-10-14T00:58:59;13.00;99.90
18091;DHT22;9172;49.948;9.208;2022-10-14T01:01:30;13.00;99.90
18091;DHT22;9172;49.948;9.208;2022-10-14T01:04:00;13.00;99.90
18091;DHT22;9172;49.948;9.208;2022-10-14T01:06:37;13.00;99.90
18091;DHT22;9172;49.948;9.208;2022-10-14T01:09:08;13.00;99.90
18091;DHT22;9172;49.948;9.208;2022-10-14T01:11:42;13.00;99.90
18091;DHT22;9172;49.948;9.208;2022-10-14T01:14:14;13.00;99.90
18091;DHT22;9172;49.948;9.208;2022-10-14T01:16:48;13.00;99.90
18091;DHT22;9172;49.948;9.208;2022-10-14T01:19:27;13.00;99.90
18091;DHT22;9172;49.948;9.208;2022-10-14T01:21:58;13.00;99.90
18091;DHT22;9172;49.948;9.208;2022-10-14T01:24:42;13.00;99.90
18091;DHT22;9172;49.948;9.208;2022-10-14T01:27:21;13.00;99.90
18091;DHT22;9172;49.948;9.208;2022-10-14T01:30:00;13.00;99.90
18091;DHT22;9172;49.948;9.208;2022-10-14T01:32:31;13.00;99.90
18091;DHT22;9172;49.948;9.208;2022-10-14T01:37:46;13.00;99.90
18091;DHT22;9172;49.948;9.208;2022-10-14T01:40:22;13.10;99.90
18091;DHT22;9172;49.948;9.208;2022-10-14T01:42:52;13.10;99.90
18091;DHT22;9172;49.948;9.208;2022-10-14T01:45:22;13.10;99.90
18091;DHT22;9172;49.948;9.208;2022-10-14T01:47:54;13.10;99.90
18091;DHT22;9172;49.948;9.208;2022-10-14T01:50:26;13.10;99.90
18091;DHT22;9172;49.948;9.208;2022-10-14T01:53:01;13.10;99.90
18091;DHT22;9172;49.948;9.208;2022-10-14T01:55:31;13.10;99.90
18091;DHT22;9172;49.948;9.208;2022-10-14T01:58:00;13.10;99.90
18091;DHT22;9172;49.948;9.208;2022-10-14T02:00:29;13.10;99.90
18091;DHT22;9172;49.948;9.208;2022-10-14T02:02:57;13.10;99.90
18091;DHT22;9172;49.948;9.208;2022-10-14T02:05:31;13.10;99.90
18091;DHT22;9172;49.948;9.208;2022-10-14T02:08:02;13.00;99.90
18091;DHT22;9172;49.948;9.208;2022-10-14T02:10:39;13.10;99.90
18091;DHT22;9172;49.948;9.208;2022-10-14T02:13:14;13.00;99.90
18091;DHT22;9172;49.948;9.208;2022-10-14T02:15:48;13.00;99.90
18091;DHT22;9172;49.948;9.208;2022-10-14T02:18:21;13.00;99.90
18091;DHT22;9172;49.948;9.208;2022-10-14T02:20:53;13.00;99.90
18091;DHT22;9172;49.948;9.208;2022-10-14T02:23:25;13.00;99.90
18091;DHT22;9172;49.948;9.208;2022-10-14T02:25:56;13.00;99.90
18091;DHT22;9172;49.948;9.208;2022-10-14T02:28:27;13.00;99.90
18091;DHT22;9172;49.948;9.208;2022-10-14T02:30:59;12.90;99.90
18091;DHT22;9172;49.948;9.208;2022-10-14T02:33:31;12.90;99.90
18091;DHT22;9172;49.948;9.208;2022-10-14T02:36:01;12.90;99.90
18091;DHT22;9172;49.948;9.208;2022-10-14T02:38:31;13.00;99.90
18091;DHT22;9172;49.948;9.208;2022-10-14T02:41:03;12.90;99.90
18091;DHT22;9172;49.948;9.208;2022-10-14T02:43:32;12.90;99.90
18091;DHT22;9172;49.948;9.208;2022-10-14T02:46:03;12.90;99.90
18091;DHT22;9172;49.948;9.208;2022-10-14T02:48:32;12.90;99.90
18091;DHT22;9172;49.948;9.208;2022-10-14T02:51:01;12.90;99.90
18091;DHT22;9172;49.948;9.208;2022-10-14T02:53:32;12.90;99.90
18091;DHT22;9172;49.948;9.208;2022-10-14T02:56:01;12.90;99.90
18091;DHT22;9172;49.948;9.208;2022-10-14T02:58:30;12.90;99.90
18091;DHT22;9172;49.948;9.208;2022-10-14T03:00:59;13.00;99.90
18091;DHT22;9172;49.948;9.208;2022-10-14T03:03:27;13.00;99.90
18091;DHT22;9172;49.948;9.208;2022-10-14T03:05:57;12.90;99.90
18091;DHT22;9172;49.948;9.208;2022-10-14T03:08:26;13.00;99.90
18091;DHT22;9172;49.948;9.208;2022-10-14T03:10:57;12.90;99.90
18091;DHT22;9172;49.948;9.208;2022-10-14T03:13:26;12.90;99.90
18091;DHT22;9172;49.948;9.208;2022-10-14T03:15:55;12.90;99.90
18091;DHT22;9172;49.948;9.208;2022-10-14T03:18:24;12.90;99.90
18091;DHT22;9172;49.948;9.208;2022-10-14T03:20:53;13.00;99.90
18091;DHT22;9172;49.948;9.208;2022-10-14T03:23:21;12.90;99.90
18091;DHT22;9172;49.948;9.208;2022-10-14T03:25:51;13.00;99.90
18091;DHT22;9172;49.948;9.208;2022-10-14T03:28:20;12.90;99.90
18091;DHT22;9172;49.948;9.208;2022-10-14T03:30:49;13.00;99.90
18091;DHT22;9172;49.948;9.208;2022-10-14T03:33:17;13.00;99.90
18091;DHT22;9172;49.948;9.208;2022-10-14T03:35:47;13.00;99.90
18091;DHT22;9172;49.948;9.208;2022-10-14T03:38:15;13.00;99.90
18091;DHT22;9172;49.948;9.208;2022-10-14T03:40:45;12.90;99.90
18091;DHT22;9172;49.948;9.208;2022-10-14T03:43:15;12.90;99.90
18091;DHT22;9172;49.948;9.208;2022-10-14T03:45:44;12.90;99.90
18091;DHT22;9172;49.948;9.208;2022-10-14T03:48:13;12.90;99.90
18091;DHT22;9172;49.948;9.208;2022-10-14T03:50:42;12.90;99.90
18091;DHT22;9172;49.948;9.208;2022-10-14T03:53:11;12.90;99.90
18091;DHT22;9172;49.948;9.208;2022-10-14T03:55:39;12.90;99.90
18091;DHT22;9172;49.948;9.208;2022-10-14T03:58:09;12.90;99.90
18091;DHT22;9172;49.948;9.208;2022-10-14T04:00:38;12.90;99.90
18091;DHT22;9172;49.948;9.208;2022-10-14T04:05:44;12.90;99.90
18091;DHT22;9172;49.948;9.208;2022-10-14T04:08:14;12.90;99.90
18091;DHT22;9172;49.948;9.208;2022-10-14T04:10:45;12.90;99.90
18091;DHT22;9172;49.948;9.208;2022-10-14T04:13:15;12.90;99.90
18091;DHT22;9172;49.948;9.208;2022-10-14T04:15:44;12.90;99.90
18091;DHT22;9172;49.948;9.208;2022-10-14T04:18:13;12.90;99.90
18091;DHT22;9172;49.948;9.208;2022-10-14T04:20:42;12.90;99.90
18091;DHT22;9172;49.948;9.208;2022-10-14T04:23:12;12.90;99.90
18091;DHT22;9172;49.948;9.208;2022-10-14T04:25:41;12.90;99.90
18091;DHT22;9172;49.948;9.208;2022-10-14T04:28:10;12.90;99.90
18091;DHT22;9172;49.948;9.208;2022-10-14T04:30:39;12.90;99.90
18091;DHT22;9172;49.948;9.208;2022-10-14T04:33:07;12.90;99.90
18091;DHT22;9172;49.948;9.208;2022-10-14T04:35:36;12.90;99.90
18091;DHT22;9172;49.948;9.208;2022-10-14T04:38:06;12.90;99.90
18091;DHT22;9172;49.948;9.208;2022-10-14T04:40:35;12.80;99.90
18091;DHT22;9172;49.948;9.208;2022-10-14T04:43:04;12.80;99.90
18091;DHT22;9172;49.948;9.208;2022-10-14T04:45:32;12.80;99.90
18091;DHT22;9172;49.948;9.208;2022-10-14T04:48:02;12.80;99.90
18091;DHT22;9172;49.948;9.208;2022-10-14T04:50:31;12.80;99.90
18091;DHT22;9172;49.948;9.208;2022-10-14T04:52:59;12.80;99.90
18091;DHT22;9172;49.948;9.208;2022-10-14T04:55:29;12.80;99.90
18091;DHT22;9172;49.948;9.208;2022-10-14T04:57:58;12.70;99.90
18091;DHT22;9172;49.948;9.208;2022-10-14T05:00:26;12.80;99.90
18091;DHT22;9172;49.948;9.208;2022-10-14T05:02:55;12.70;99.90
18091;DHT22;9172;49.948;9.208;2022-10-14T05:05:24;12.80;99.90
18091;DHT22;9172;49.948;9.208;2022-10-14T05:07:52;12.80;99.90
18091;DHT22;9172;49.948;9.208;2022-10-14T05:10:22;12.80;99.90
18091;DHT22;9172;49.948;9.208;2022-10-14T05:12:51;12.80;99.90
18091;DHT22;9172;49.948;9.208;2022-10-14T05:15:20;12.80;99.90
18091;DHT22;9172;49.948;9.208;2022-10-14T05:17:49;12.70;99.90
18091;DHT22;9172;49.948;9.208;2022-10-14T05:20:18;12.80;99.90
18091;DHT22;9172;49.948;9.208;2022-10-14T05:22:46;12.80;99.90
18091;DHT22;9172;49.948;9.208;2022-10-14T05:25:15;12.80;99.90
18091;DHT22;9172;49.948;9.208;2022-10-14T05:27:45;12.80;99.90
18091;DHT22;9172;49.948;9.208;2022-10-14T05:30:14;12.80;99.90
18091;DHT22;9172;49.948;9.208;2022-10-14T05:32:43;12.80;99.90
18091;DHT22;9172;49.948;9.208;2022-10-14T05:35:12;12.80;99.90
18091;DHT22;9172;49.948;9.208;2022-10-14T05:37:42;12.80;99.90
18091;DHT22;9172;49.948;9.208;2022-10-14T05:40:11;12.80;99.90
18091;DHT22;9172;49.948;9.208;2022-10-14T05:42:40;12.80;99.90
18091;DHT22;9172;49.948;9.208;2022-10-14T05:45:13;12.80;99.90
18091;DHT22;9172;49.948;9.208;2022-10-14T05:47:43;12.80;99.90
18091;DHT22;9172;49.948;9.208;2022-10-14T05:50:12;12.80;99.90
18091;DHT22;9172;49.948;9.208;2022-10-14T05:52:42;12.80;99.90
18091;DHT22;9172;49.948;9.208;2022-10-14T05:55:11;12.80;99.90
18091;DHT22;9172;49.948;9.208;2022-10-14T05:57:40;12.80;99.90
18091;DHT22;9172;49.948;9.208;2022-10-14T06:00:12;12.70;99.90
18091;DHT22;9172;49.948;9.208;2022-10-14T06:02:40;12.70;99.90
18091;DHT22;9172;49.948;9.208;2022-10-14T06:05:09;12.80;99.90
18091;DHT22;9172;49.948;9.208;2022-10-14T06:07:38;12.70;99.90
18091;DHT22;9172;49.948;9.208;2022-10-14T06:10:09;12.80;99.90
18091;DHT22;9172;49.948;9.208;2022-10-14T06:12:39;12.80;99.90
18091;DHT22;9172;49.948;9.208;2022-10-14T06:15:09;12.80;99.90
18091;DHT22;9172;49.948;9.208;2022-10-14T06:17:37;12.80;99.90
18091;DHT22;9172;49.948;9.208;2022-10-14T06:20:10;12.80;99.90
18091;DHT22;9172;49.948;9.208;2022-10-14T06:22:40;12.80;99.90
18091;DHT22;9172;49.948;9.208;2022-10-14T06:25:09;12.80;99.90
18091;DHT22;9172;49.948;9.208;2022-10-14T06:27:40;12.80;99.90
18091;DHT22;9172;49.948;9.208;2022-10-14T06:30:11;12.80;99.90
18091;DHT22;9172;49.948;9.208;2022-10-14T06:32:41;12.80;99.90
18091;DHT22;9172;49.948;9.208;2022-10-14T06:35:10;12.80;99.90
18091;DHT22;9172;49.948;9.208;2022-10-14T06:37:39;12.80;99.90
18091;DHT22;9172;49.948;9.208;2022-10-14T06:40:10;12.80;99.90
18091;DHT22;9172;49.948;9.208;2022-10-14T06:42:39;12.80;99.90
18091;DHT22;9172;49.948;9.208;2022-10-14T06:45:10;12.80;99.90
18091;DHT22;9172;49.948;9.208;2022-10-14T06:47:42;12.80;99.90
18091;DHT22;9172;49.948;9.208;2022-10-14T06:50:13;12.80;99.90
18091;DHT22;9172;49.948;9.208;2022-10-14T06:52:48;12.80;99.90
18091;DHT22;9172;49.948;9.208;2022-10-14T06:55:17;12.80;99.90
18091;DHT22;9172;49.948;9.208;2022-10-14T06:57:46;12.80;99.90
18091;DHT22;9172;49.948;9.208;2022-10-14T07:00:16;12.80;99.90
18091;DHT22;9172;49.948;9.208;2022-10-14T07:02:45;12.90;99.90
18091;DHT22;9172;49.948;9.208;2022-10-14T07:05:14;12.90;99.90
18091;DHT22;9172;49.948;9.208;2022-10-14T07:07:43;12.90;99.90
18091;DHT22;9172;49.948;9.208;2022-10-14T07:10:12;12.90;99.90
18091;DHT22;9172;49.948;9.208;2022-10-14T07:12:41;12.90;99.90
18091;DHT22;9172;49.948;9.208;2022-10-14T07:15:10;12.90;99.90
18091;DHT22;9172;49.948;9.208;2022-10-14T07:17:39;13.00;99.90
18091;DHT22;9172;49.948;9.208;2022-10-14T07:20:10;13.00;99.90
18091;DHT22;9172;49.948;9.208;2022-10-14T07:22:39;13.00;99.90
18091;DHT22;9172;49.948;9.208;2022-10-14T07:25:10;13.10;99.90
18091;DHT22;9172;49.948;9.208;2022-10-14T07:27:38;13.10;99.90
18091;DHT22;9172;49.948;9.208;2022-10-14T07:30:09;13.10;99.90
18091;DHT22;9172;49.948;9.208;2022-10-14T07:32:38;13.10;99.90
18091;DHT22;9172;49.948;9.208;2022-10-14T07:35:07;13.10;99.90
18091;DHT22;9172;49.948;9.208;2022-10-14T07:37:37;13.10;99.90
18091;DHT22;9172;49.948;9.208;2022-10-14T07:40:07;13.20;99.90
18091;DHT22;9172;49.948;9.208;2022-10-14T07:42:36;13.20;99.90
18091;DHT22;9172;49.948;9.208;2022-10-14T07:45:07;13.20;99.90
18091;DHT22;9172;49.948;9.208;2022-10-14T07:47:36;13.20;99.90
18091;DHT22;9172;49.948;9.208;2022-10-14T07:50:06;13.20;99.90
18091;DHT22;9172;49.948;9.208;2022-10-14T07:52:36;13.20;99.90
18091;DHT22;9172;49.948;9.208;2022-10-14T07:55:07;13.20;99.90
18091;DHT22;9172;49.948;9.208;2022-10-14T07:57:35;13.20;99.90
18091;DHT22;9172;49.948;9.208;2022-10-14T08:00:06;13.20;99.90
18091;DHT22;9172;49.948;9.208;2022-10-14T08:02:35;13.30;99.90
18091;DHT22;9172;49.948;9.208;2022-10-14T08:05:05;13.30;99.90
18091;DHT22;9172;49.948;9.208;2022-10-14T08:07:33;13.30;99.90
18091;DHT22;9172;49.948;9.208;2022-10-14T08:10:02;13.30;99.90
18091;DHT22;9172;49.948;9.208;2022-10-14T08:12:33;13.30;99.90
18091;DHT22;9172;49.948;9.208;2022-10-14T08:15:05;13.30;99.90
18091;DHT22;9172;49.948;9.208;2022-10-14T08:17:34;13.30;99.90
18091;DHT22;9172;49.948;9.208;2022-10-14T08:20:06;13.30;99.90
18091;DHT22;9172;49.948;9.208;2022-10-14T08:22:34;13.30;99.90
18091;DHT22;9172;49.948;9.208;2022-10-14T08:25:04;13.30;99.90
18091;DHT22;9172;49.948;9.208;2022-10-14T08:27:32;13.40;99.90
18091;DHT22;9172;49.948;9.208;2022-10-14T08:30:02;13.40;99.90
18091;DHT22;9172;49.948;9.208;2022-10-14T08:32:31;13.40;99.90
18091;DHT22;9172;49.948;9.208;2022-10-14T08:35:00;13.40;99.90
18091;DHT22;9172;49.948;9.208;2022-10-14T08:37:30;13.40;99.90
18091;DHT22;9172;49.948;9.208;2022-10-14T08:39:58;13.40;99.90
18091;DHT22;9172;49.948;9.208;2022-10-14T08:42:33;13.50;99.90
18091;DHT22;9172;49.948;9.208;2022-10-14T08:45:07;13.50;99.90
18091;DHT22;9172;49.948;9.208;2022-10-14T08:47:38;13.50;99.90
18091;DHT22;9172;49.948;9.208;2022-10-14T08:52:49;13.60;99.90
18091;DHT22;9172;49.948;9.208;2022-10-14T08:55:26;13.60;99.90
18091;DHT22;9172;49.948;9.208;2022-10-14T08:57:58;13.70;99.90
18091;DHT22;9172;49.948;9.208;2022-10-14T09:00:31;13.70;99.90
18091;DHT22;9172;49.948;9.208;2022-10-14T09:03:04;13.70;99.90
18091;DHT22;9172;49.948;9.208;2022-10-14T09:05:34;13.80;99.90
18091;DHT22;9172;49.948;9.208;2022-10-14T09:08:09;13.80;99.90
18091;DHT22;9172;49.948;9.208;2022-10-14T09:10:40;13.90;99.90
18091;DHT22;9172;49.948;9.208;2022-10-14T09:13:13;13.90;99.90
18091;DHT22;9172;49.948;9.208;2022-10-14T09:15:44;13.90;99.90
18091;DHT22;9172;49.948;9.208;2022-10-14T09:18:23;14.00;99.90
18091;DHT22;9172;49.948;9.208;2022-10-14T09:20:55;14.00;99.90
18091;DHT22;9172;49.948;9.208;2022-10-14T09:23:26;14.00;99.90
18091;DHT22;9172;49.948;9.208;2022-10-14T09:25:58;14.10;99.90
18091;DHT22;9172;49.948;9.208;2022-10-14T09:28:32;14.10;99.90
18091;DHT22;9172;49.948;9.208;2022-10-14T09:31:03;14.20;99.90
18091;DHT22;9172;49.948;9.208;2022-10-14T09:33:32;14.20;99.90
18091;DHT22;9172;49.948;9.208;2022-10-14T09:36:05;14.20;99.90
18091;DHT22;9172;49.948;9.208;2022-10-14T09:38:36;14.20;99.90
18091;DHT22;9172;49.948;9.208;2022-10-14T09:41:07;14.20;99.90
18091;DHT22;9172;49.948;9.208;2022-10-14T09:43:38;14.20;99.90
18091;DHT22;9172;49.948;9.208;2022-10-14T09:46:12;14.20;99.90
18091;DHT22;9172;49.948;9.208;2022-10-14T09:48:42;14.20;99.90
18091;DHT22;9172;49.948;9.208;2022-10-14T09:51:21;14.20;99.90
18091;DHT22;9172;49.948;9.208;2022-10-14T09:53:51;14.20;99.90
18091;DHT22;9172;49.948;9.208;2022-10-14T09:56:28;14.20;99.90
18091;DHT22;9172;49.948;9.208;2022-10-14T09:58:59;14.20;99.90
18091;DHT22;9172;49.948;9.208;2022-10-14T10:01:35;14.20;99.90
18091;DHT22;9172;49.948;9.208;2022-10-14T10:04:30;14.20;99.90
18091;DHT22;9172;49.948;9.208;2022-10-14T10:07:05;14.30;99.90
18091;DHT22;9172;49.948;9.208;2022-10-14T10:09:42;14.30;99.90
18091;DHT22;9172;49.948;9.208;2022-10-14T10:12:23;14.30;99.90
18091;DHT22;9172;49.948;9.208;2022-10-14T10:14:59;14.30;99.90
18091;DHT22;9172;49.948;9.208;2022-10-14T10:17:39;14.40;99.90
18091;DHT22;9172;49.948;9.208;2022-10-14T10:20:23;14.40;99.90
18091;DHT22;9172;49.948;9.208;2022-10-14T10:22:57;14.40;99.90
18091;DHT22;9172;49.948;9.208;2022-10-14T10:25:27;14.50;99.90
18091;DHT22;9172;49.948;9.208;2022-10-14T10:28:02;14.50;99.90
18091;DHT22;9172;49.948;9.208;2022-10-14T10:30:37;14.50;99.90
18091;DHT22;9172;49.948;9.208;2022-10-14T10:33:27;14.50;99.90
18091;DHT22;9172;49.948;9.208;2022-10-14T10:39:12;14.60;99.90
18091;DHT22;9172;49.948;9.208;2022-10-14T10:41:55;14.70;99.90
18091;DHT22;9172;49.948;9.208;2022-10-14T10:44:45;14.70;99.90
18091;DHT22;9172;49.948;9.208;2022-10-14T10:47:29;14.80;99.90
18091;DHT22;9172;49.948;9.208;2022-10-14T10:50:25;14.80;99.90
18091;DHT22;9172;49.948;9.208;2022-10-14T10:53:04;14.80;99.90
18091;DHT22;9172;49.948;9.208;2022-10-14T10:55:37;14.90;99.90
18091;DHT22;9172;49.948;9.208;2022-10-14T10:58:16;14.90;99.90
18091;DHT22;9172;49.948;9.208;2022-10-14T11:00:49;14.90;99.90
18091;DHT22;9172;49.948;9.208;2022-10-14T11:03:33;15.00;99.90
18091;DHT22;9172;49.948;9.208;2022-10-14T11:06:05;15.10;99.90
18091;DHT22;9172;49.948;9.208;2022-10-14T11:08:42;15.10;99.90
18091;DHT22;9172;49.948;9.208;2022-10-14T11:11:32;15.10;99.90
18091;DHT22;9172;49.948;9.208;2022-10-14T11:17:21;15.30;99.90
18091;DHT22;9172;49.948;9.208;2022-10-14T11:19:58;15.30;99.90
18091;DHT22;9172;49.948;9.208;2022-10-14T11:22:43;15.40;99.90
18091;DHT22;9172;49.948;9.208;2022-10-14T11:25:19;15.40;99.90
18091;DHT22;9172;49.948;9.208;2022-10-14T11:27:52;15.40;99.90
18091;DHT22;9172;49.948;9.208;2022-10-14T11:30:24;15.40;99.90
18091;DHT22;9172;49.948;9.208;2022-10-14T11:33:05;15.50;99.90
18091;DHT22;9172;49.948;9.208;2022-10-14T11:35:43;15.40;99.90
18091;DHT22;9172;49.948;9.208;2022-10-14T11:38:22;15.50;99.90
18091;DHT22;9172;49.948;9.208;2022-10-14T11:40:53;15.50;99.90
18091;DHT22;9172;49.948;9.208;2022-10-14T11:43:25;15.40;99.90
18091;DHT22;9172;49.948;9.208;2022-10-14T11:45:57;15.50;99.90
18091;DHT22;9172;49.948;9.208;2022-10-14T11:48:31;15.50;99.90
18091;DHT22;9172;49.948;9.208;2022-10-14T11:51:08;15.50;99.90
18091;DHT22;9172;49.948;9.208;2022-10-14T11:53:53;15.50;99.90
18091;DHT22;9172;49.948;9.208;2022-10-14T11:56:43;15.50;99.90
18091;DHT22;9172;49.948;9.208;2022-10-14T11:59:27;15.50;99.90
18091;DHT22;9172;49.948;9.208;2022-10-14T12:01:57;15.50;99.90
18091;DHT22;9172;49.948;9.208;2022-10-14T12:04:29;15.50;99.90
18091;DHT22;9172;49.948;9.208;2022-10-14T12:07:03;15.50;99.90
18091;DHT22;9172;49.948;9.208;2022-10-14T12:09:36;15.50;99.90
18091;DHT22;9172;49.948;9.208;2022-10-14T12:12:07;15.60;99.90
18091;DHT22;9172;49.948;9.208;2022-10-14T12:14:40;15.60;99.90
18091;DHT22;9172;49.948;9.208;2022-10-14T12:17:16;15.60;99.90
18091;DHT22;9172;49.948;9.208;2022-10-14T12:19:46;15.60;99.90
18091;DHT22;9172;49.948;9.208;2022-10-14T12:22:18;15.70;99.90
18091;DHT22;9172;49.948;9.208;2022-10-14T12:24:49;15.70;99.90
18091;DHT22;9172;49.948;9.208;2022-10-14T12:27:22;15.80;99.90
18091;DHT22;9172;49.948;9.208;2022-10-14T12:29:53;15.70;99.90
18091;DHT22;9172;49.948;9.208;2022-10-14T12:32:24;15.70;99.90
18091;DHT22;9172;49.948;9.208;2022-10-14T12:34:54;15.70;99.90
18091;DHT22;9172;49.948;9.208;2022-10-14T12:37:54;15.70;99.90
18091;DHT22;9172;49.948;9.208;2022-10-14T12:40:31;15.60;99.90
18091;DHT22;9172;49.948;9.208;2022-10-14T12:43:04;15.60;99.90
18091;DHT22;9172;49.948;9.208;2022-10-14T12:45:36;15.60;99.90
18091;DHT22;9172;49.948;9.208;2022-10-14T12:48:11;15.70;99.90
18091;DHT22;9172;49.948;9.208;2022-10-14T12:50:38;15.60;99.90
18091;DHT22;9172;49.948;9.208;2022-10-14T12:53:15;15.60;99.90
18091;DHT22;9172;49.948;9.208;2022-10-14T12:55:49;15.60;99.90
18091;DHT22;9172;49.948;9.208;2022-10-14T12:58:22;15.60;99.90
18091;DHT22;9172;49.948;9.208;2022-10-14T13:00:58;15.60;99.90
18091;DHT22;9172;49.948;9.208;2022-10-14T13:03:30;15.60;99.90
18091;DHT22;9172;49.948;9.208;2022-10-14T13:06:34;15.60;99.90
18091;DHT22;9172;49.948;9.208;2022-10-14T13:12:40;15.60;99.90
18091;DHT22;9172;49.948;9.208;2022-10-14T13:15:47;15.60;99.90
18091;DHT22;9172;49.948;9.208;2022-10-14T13:21:51;15.60;99.90
18091;DHT22;9172;49.948;9.208;2022-10-14T13:24:27;15.50;99.90
18091;DHT22;9172;49.948;9.208;2022-10-14T13:27:06;15.40;99.90
18091;DHT22;9172;49.948;9.208;2022-10-14T13:29:43;15.40;99.90
18091;DHT22;9172;49.948;9.208;2022-10-14T13:32:15;15.30;99.90
18091;DHT22;9172;49.948;9.208;2022-10-14T13:34:55;15.30;99.90
18091;DHT22;9172;49.948;9.208;2022-10-14T13:37:33;15.30;99.90
18091;DHT22;9172;49.948;9.208;2022-10-14T13:40:16;15.20;99.90
18091;DHT22;9172;49.948;9.208;2022-10-14T13:42:52;15.20;99.90
18091;DHT22;9172;49.948;9.208;2022-10-14T13:45:26;15.20;99.90
18091;DHT22;9172;49.948;9.208;2022-10-14T13:47:55;15.20;99.90
18091;DHT22;9172;49.948;9.208;2022-10-14T13:50:30;15.20;99.90
18091;DHT22;9172;49.948;9.208;2022-10-14T13:53:05;15.10;99.90
18091;DHT22;9172;49.948;9.208;2022-10-14T13:55:42;15.10;99.90
18091;DHT22;9172;49.948;9.208;2022-10-14T13:58:13;15.10;99.90
18091;DHT22;9172;49.948;9.208;2022-10-14T14:00:48;15.00;99.90
18091;DHT22;9172;49.948;9.208;2022-10-14T14:03:22;14.90;99.90
18091;DHT22;9172;49.948;9.208;2022-10-14T14:05:56;14.90;99.90
18091;DHT22;9172;49.948;9.208;2022-10-14T14:08:30;14.80;99.90
18091;DHT22;9172;49.948;9.208;2022-10-14T14:11:02;14.80;99.90
18091;DHT22;9172;49.948;9.208;2022-10-14T14:13:39;14.80;99.90
18091;DHT22;9172;49.948;9.208;2022-10-14T14:16:32;14.70;99.90
18091;DHT22;9172;49.948;9.208;2022-10-14T14:19:05;14.70;99.90
18091;DHT22;9172;49.948;9.208;2022-10-14T14:21:34;14.70;99.90
18091;DHT22;9172;49.948;9.208;2022-10-14T14:24:15;14.70;99.90
18091;DHT22;9172;49.948;9.208;2022-10-14T14:29:51;14.70;99.90
18091;DHT22;9172;49.948;9.208;2022-10-14T14:32:24;14.70;99.90
18091;DHT22;9172;49.948;9.208;2022-10-14T14:34:53;14.70;99.90
18091;DHT22;9172;49.948;9.208;2022-10-14T14:37:24;14.70;99.90
18091;DHT22;9172;49.948;9.208;2022-10-14T14:39:58;14.70;99.90
18091;DHT22;9172;49.948;9.208;2022-10-14T14:42:31;14.70;99.90
18091;DHT22;9172;49.948;9.208;2022-10-14T14:45:05;14.70;99.90
18091;DHT22;9172;49.948;9.208;2022-10-14T14:47:34;14.60;99.90
18091;DHT22;9172;49.948;9.208;2022-10-14T14:50:05;14.60;99.90
18091;DHT22;9172;49.948;9.208;2022-10-14T14:52:34;14.60;99.90
18091;DHT22;9172;49.948;9.208;2022-10-14T14:55:05;14.70;99.90
18091;DHT22;9172;49.948;9.208;2022-10-14T14:57:34;14.70;99.90
18091;DHT22;9172;49.948;9.208;2022-10-14T15:02:40;14.70;99.90
18091;DHT22;9172;49.948;9.208;2022-10-14T15:07:46;14.60;99.90
18091;DHT22;9172;49.948;9.208;2022-10-14T15:12:58;14.60;99.90
18091;DHT22;9172;49.948;9.208;2022-10-14T15:18:13;14.60;99.90
18091;DHT22;9172;49.948;9.208;2022-10-14T15:23:56;14.60;99.90
18091;DHT22;9172;49.948;9.208;2022-10-14T15:26:31;14.60;99.90
18091;DHT22;9172;49.948;9.208;2022-10-14T15:29:12;14.60;99.90
18091;DHT22;9172;49.948;9.208;2022-10-14T15:31:43;14.60;99.90
18091;DHT22;9172;49.948;9.208;2022-10-14T15:34:17;14.60;99.90
18091;DHT22;9172;49.948;9.208;2022-10-14T15:36:50;14.60;99.90
18091;DHT22;9172;49.948;9.208;2022-10-14T15:39:20;14.60;99.90
18091;DHT22;9172;49.948;9.208;2022-10-14T15:41:49;14.60;99.90
18091;DHT22;9172;49.948;9.208;2022-10-14T15:44:18;14.60;99.90
18091;DHT22;9172;49.948;9.208;2022-10-14T15:46:46;14.60;99.90
18091;DHT22;9172;49.948;9.208;2022-10-14T15:49:36;14.60;99.90
18091;DHT22;9172;49.948;9.208;2022-10-14T15:52:07;14.60;99.90
18091;DHT22;9172;49.948;9.208;2022-10-14T15:54:37;14.60;99.90
18091;DHT22;9172;49.948;9.208;2022-10-14T15:57:06;14.60;99.90
18091;DHT22;9172;49.948;9.208;2022-10-14T15:59:34;14.60;99.90
18091;DHT22;9172;49.948;9.208;2022-10-14T16:02:05;14.60;99.90
18091;DHT22;9172;49.948;9.208;2022-10-14T16:04:36;14.60;99.90
18091;DHT22;9172;49.948;9.208;2022-10-14T16:07:08;14.60;99.90
18091;DHT22;9172;49.948;9.208;2022-10-14T16:09:37;14.60;99.90
18091;DHT22;9172;49.948;9.208;2022-10-14T16:12:11;14.60;99.90
18091;DHT22;9172;49.948;9.208;2022-10-14T16:14:40;14.60;99.90
18091;DHT22;9172;49.948;9.208;2022-10-14T16:17:09;14.60;99.90
18091;DHT22;9172;49.948;9.208;2022-10-14T16:19:38;14.60;99.90
18091;DHT22;9172;49.948;9.208;2022-10-14T16:22:07;14.60;99.90
18091;DHT22;9172;49.948;9.208;2022-10-14T16:24:36;14.60;99.90
18091;DHT22;9172;49.948;9.208;2022-10-14T16:27:05;14.60;99.90
18091;DHT22;9172;49.948;9.208;2022-10-14T16:29:35;14.60;99.90
18091;DHT22;9172;49.948;9.208;2022-10-14T16:32:08;14.60;99.90
18091;DHT22;9172;49.948;9.208;2022-10-14T16:34:41;14.60;99.90
18091;DHT22;9172;49.948;9.208;2022-10-14T16:37:10;14.60;99.90
18091;DHT22;9172;49.948;9.208;2022-10-14T16:39:42;14.60;99.90
18091;DHT22;9172;49.948;9.208;2022-10-14T16:42:11;14.60;99.90
18091;DHT22;9172;49.948;9.208;2022-10-14T16:44:40;14.60;99.90
18091;DHT22;9172;49.948;9.208;2022-10-14T16:47:09;14.60;99.90
18091;DHT22;9172;49.948;9.208;2022-10-14T16:49:45;14.60;99.90
18091;DHT22;9172;49.948;9.208;2022-10-14T16:52:16;14.60;99.90
18091;DHT22;9172;49.948;9.208;2022-10-14T16:54:45;14.60;99.90